createdAt,value
2018-12-24T00:00:02.879Z,5.18
2018-12-24T00:01:08.416Z,5.10
2018-12-24T00:02:13.942Z,5.18
2018-12-24T00:03:19.632Z,5.13
2018-12-24T00:04:25.010Z,5.13
2018-12-24T00:05:30.545Z,5.18
2018-12-24T00:06:36.068Z,5.15
2018-12-24T00:07:41.602Z,5.17
2018-12-24T00:08:47.341Z,5.04
2018-12-24T00:09:52.671Z,5.03
2018-12-24T00:10:58.200Z,5.03
2018-12-24T00:12:07.117Z,5.02
2018-12-24T00:13:09.257Z,5.04
2018-12-24T00:14:14.791Z,5.04
2018-12-24T00:15:20.401Z,5.02
2018-12-24T00:16:25.858Z,5.03
2018-12-24T00:17:31.388Z,5.03
2018-12-24T00:18:36.922Z,5.02
2018-12-24T00:19:42.453Z,4.99
2018-12-24T00:20:47.983Z,4.96
2018-12-24T00:21:53.519Z,4.97
2018-12-24T00:22:59.044Z,5.04
2018-12-24T00:24:04.578Z,4.97
2018-12-24T00:25:10.116Z,5.02
2018-12-24T00:26:15.643Z,5.03
2018-12-24T00:27:21.172Z,5.02
2018-12-24T00:28:26.712Z,5.02
2018-12-24T00:29:32.243Z,4.97
2018-12-24T00:30:37.779Z,4.94
2018-12-24T00:31:43.302Z,4.97
2018-12-24T00:32:48.834Z,4.92
2018-12-24T00:33:54.365Z,4.97
2018-12-24T00:34:59.896Z,5.02
2018-12-24T00:36:05.426Z,5.03
2018-12-24T00:37:10.959Z,4.86
2018-12-24T00:38:16.500Z,4.86
2018-12-24T00:39:22.031Z,4.91
2018-12-24T00:40:27.557Z,4.85
2018-12-24T00:41:33.090Z,4.82
2018-12-24T00:42:38.617Z,4.85
2018-12-24T00:43:44.157Z,4.84
2018-12-24T00:44:49.685Z,4.91
2018-12-24T00:45:55.215Z,4.85
2018-12-24T00:47:00.751Z,4.80
2018-12-24T00:48:06.281Z,4.80
2018-12-24T00:49:11.810Z,4.77
2018-12-24T00:50:17.342Z,4.77
2018-12-24T00:51:22.879Z,4.72
2018-12-24T00:52:28.405Z,4.65
2018-12-24T00:53:33.951Z,4.72
2018-12-24T00:54:39.475Z,4.67
2018-12-24T00:55:45.004Z,4.59
2018-12-24T00:56:50.534Z,4.62
2018-12-24T00:57:56.062Z,4.51
2018-12-24T00:59:01.596Z,4.59
2018-12-24T01:00:07.132Z,4.54
2018-12-24T01:01:12.665Z,4.63
2018-12-24T01:02:18.197Z,4.58
2018-12-24T01:03:23.724Z,4.58
2018-12-24T01:04:29.258Z,4.50
2018-12-24T01:05:34.786Z,4.50
2018-12-24T01:06:40.313Z,4.48
2018-12-24T01:07:45.846Z,4.48
2018-12-24T01:08:51.386Z,4.51
2018-12-24T01:09:56.911Z,4.55
2018-12-24T01:11:02.444Z,4.44
2018-12-24T01:12:07.975Z,4.51
2018-12-24T01:13:13.503Z,4.44
2018-12-24T01:14:19.041Z,4.54
2018-12-24T01:15:24.568Z,4.44
2018-12-24T01:16:30.099Z,4.36
2018-12-24T01:17:35.630Z,4.47
2018-12-24T01:18:41.165Z,4.41
2018-12-24T01:19:46.693Z,4.37
2018-12-24T01:20:52.227Z,4.30
2018-12-24T01:21:57.754Z,4.24
2018-12-24T01:23:03.288Z,4.26
2018-12-24T01:24:08.818Z,4.22
2018-12-24T01:25:14.356Z,4.20
2018-12-24T01:26:19.885Z,4.22
2018-12-24T01:27:25.411Z,4.16
2018-12-24T01:28:30.944Z,4.15
2018-12-24T01:29:36.479Z,4.14
2018-12-24T01:30:42.003Z,4.12
2018-12-24T01:31:47.536Z,4.15
2018-12-24T01:32:53.150Z,4.16
2018-12-24T01:33:58.604Z,4.20
2018-12-24T01:35:04.131Z,4.15
2018-12-24T01:36:09.662Z,4.12
2018-12-24T01:37:15.189Z,4.11
2018-12-24T01:38:20.728Z,4.09
2018-12-24T01:39:26.255Z,4.06
2018-12-24T01:40:31.787Z,4.15
2018-12-24T01:41:37.316Z,4.00
2018-12-24T01:42:42.848Z,4.04
2018-12-24T01:43:48.377Z,4.00
2018-12-24T01:44:53.909Z,4.04
2018-12-24T01:45:59.447Z,4.08
2018-12-24T01:47:04.976Z,3.98
2018-12-24T01:48:10.507Z,3.90
2018-12-24T01:49:16.039Z,3.93
2018-12-24T01:50:21.570Z,3.97
2018-12-24T01:51:27.103Z,3.94
2018-12-24T01:52:32.647Z,3.90
2018-12-24T01:53:38.159Z,3.88
2018-12-24T01:54:43.687Z,3.97
2018-12-24T01:55:49.218Z,3.86
2018-12-24T01:56:54.760Z,3.86
2018-12-24T01:58:00.277Z,3.88
2018-12-24T01:59:05.812Z,3.66
2018-12-24T02:00:11.343Z,3.79
2018-12-24T02:01:16.872Z,3.76
2018-12-24T02:02:22.402Z,3.68
2018-12-24T02:03:27.935Z,3.61
2018-12-24T02:04:33.475Z,3.54
2018-12-24T02:05:39.002Z,3.52
2018-12-24T02:06:44.525Z,3.51
2018-12-24T02:07:50.059Z,3.58
2018-12-24T02:08:55.596Z,3.50
2018-12-24T02:10:01.118Z,3.52
2018-12-24T02:11:06.650Z,3.52
2018-12-24T02:12:12.180Z,3.50
2018-12-24T02:13:17.713Z,3.54
2018-12-24T02:14:23.244Z,3.54
2018-12-24T02:15:28.772Z,3.54
2018-12-24T02:16:34.305Z,3.48
2018-12-24T02:17:39.837Z,3.40
2018-12-24T02:18:45.363Z,3.48
2018-12-24T02:19:50.899Z,3.45
2018-12-24T02:20:56.432Z,3.33
2018-12-24T02:22:01.955Z,3.35
2018-12-24T02:23:07.495Z,3.35
2018-12-24T02:24:13.016Z,3.40
2018-12-24T02:25:18.551Z,3.29
2018-12-24T02:26:24.080Z,3.36
2018-12-24T02:27:29.612Z,3.36
2018-12-24T02:28:35.145Z,3.39
2018-12-24T02:29:40.675Z,3.33
2018-12-24T02:30:46.211Z,3.32
2018-12-24T02:31:51.732Z,3.32
2018-12-24T02:32:57.261Z,3.36
2018-12-24T02:34:02.794Z,3.33
2018-12-24T02:35:08.329Z,3.33
2018-12-24T02:36:13.853Z,3.39
2018-12-24T02:37:19.385Z,3.43
2018-12-24T02:38:24.916Z,3.32
2018-12-24T02:39:30.449Z,3.20
2018-12-24T02:40:35.982Z,3.18
2018-12-24T02:41:41.507Z,3.17
2018-12-24T02:42:52.284Z,3.17
2018-12-24T02:43:52.567Z,3.26
2018-12-24T02:44:58.110Z,3.21
2018-12-24T02:47:35.260Z,3.03
2018-12-24T02:48:40.739Z,3.00
2018-12-24T02:50:39.169Z,2.96
2018-12-24T02:51:44.661Z,3.00
2018-12-24T02:53:43.074Z,3.00
2018-12-24T02:54:48.609Z,2.99
2018-12-24T02:55:54.133Z,3.00
2018-12-24T02:56:59.668Z,2.93
2018-12-24T02:58:05.195Z,2.82
2018-12-24T02:59:10.716Z,2.79
2018-12-24T03:00:16.244Z,2.75
2018-12-24T03:01:21.784Z,2.85
2018-12-24T03:02:27.305Z,2.87
2018-12-24T03:03:32.837Z,2.85
2018-12-24T03:04:38.365Z,2.89
2018-12-24T03:05:43.893Z,2.90
2018-12-24T03:06:49.421Z,2.79
2018-12-24T03:07:54.958Z,2.82
2018-12-24T03:09:00.484Z,2.77
2018-12-24T03:10:06.014Z,2.66
2018-12-24T03:11:11.543Z,2.77
2018-12-24T03:12:17.073Z,2.77
2018-12-24T03:13:22.606Z,2.77
2018-12-24T03:14:28.136Z,2.69
2018-12-24T03:15:33.669Z,2.78
2018-12-24T03:16:39.201Z,2.81
2018-12-24T03:17:44.724Z,2.69
2018-12-24T03:18:50.257Z,2.61
2018-12-24T03:19:55.792Z,2.63
2018-12-24T03:21:01.323Z,2.63
2018-12-24T03:22:06.851Z,2.66
2018-12-24T03:23:12.378Z,2.66
2018-12-24T03:24:17.910Z,2.61
2018-12-24T03:25:23.453Z,2.67
2018-12-24T03:26:28.968Z,2.61
2018-12-24T03:27:34.500Z,2.59
2018-12-24T03:28:40.058Z,2.61
2018-12-24T03:29:45.562Z,2.63
2018-12-24T03:30:51.094Z,2.67
2018-12-24T03:31:56.626Z,2.60
2018-12-24T03:33:02.158Z,2.61
2018-12-24T03:34:07.679Z,2.56
2018-12-24T03:35:13.214Z,2.60
2018-12-24T03:36:18.754Z,2.56
2018-12-24T03:37:24.273Z,2.59
2018-12-24T03:38:29.802Z,2.64
2018-12-24T03:39:35.331Z,2.64
2018-12-24T03:40:40.869Z,2.54
2018-12-24T03:41:46.390Z,2.52
2018-12-24T03:42:51.925Z,2.48
2018-12-24T03:43:57.451Z,2.54
2018-12-24T03:45:02.982Z,2.54
2018-12-24T03:46:08.513Z,2.54
2018-12-24T03:47:14.047Z,2.52
2018-12-24T03:48:19.575Z,2.49
2018-12-24T03:49:25.102Z,2.54
2018-12-24T03:50:30.637Z,2.52
2018-12-24T03:51:36.163Z,2.54
2018-12-24T03:52:41.693Z,2.54
2018-12-24T03:53:47.222Z,2.63
2018-12-24T03:54:52.783Z,2.52
2018-12-24T03:55:58.291Z,2.52
2018-12-24T03:57:03.822Z,2.48
2018-12-24T03:58:09.352Z,2.52
2018-12-24T03:59:14.872Z,2.48
2018-12-24T04:00:20.404Z,2.52
2018-12-24T04:01:25.935Z,2.43
2018-12-24T04:02:31.473Z,2.45
2018-12-24T04:03:36.996Z,2.45
2018-12-24T04:04:42.523Z,2.39
2018-12-24T04:05:48.055Z,2.43
2018-12-24T04:06:53.585Z,2.34
2018-12-24T04:07:59.121Z,2.31
2018-12-24T04:09:04.643Z,2.42
2018-12-24T04:10:10.187Z,2.36
2018-12-24T04:11:15.711Z,2.36
2018-12-24T04:12:21.235Z,2.35
2018-12-24T04:13:26.764Z,2.34
2018-12-24T04:14:32.297Z,2.39
2018-12-24T04:15:37.826Z,2.36
2018-12-24T04:16:43.357Z,2.42
2018-12-24T04:17:48.890Z,2.52
2018-12-24T04:18:54.422Z,2.36
2018-12-24T04:19:59.948Z,2.35
2018-12-24T04:21:05.474Z,2.34
2018-12-24T04:22:11.006Z,2.45
2018-12-24T04:23:16.534Z,2.35
2018-12-24T04:24:22.064Z,2.41
2018-12-24T04:25:27.597Z,2.34
2018-12-24T04:26:33.132Z,2.38
2018-12-24T04:27:42.032Z,2.35
2018-12-24T04:28:44.189Z,2.35
2018-12-24T04:29:49.721Z,2.36
2018-12-24T04:30:55.256Z,2.30
2018-12-24T04:32:00.777Z,2.27
2018-12-24T04:33:06.312Z,2.34
2018-12-24T04:34:11.836Z,2.38
2018-12-24T04:35:17.366Z,2.41
2018-12-24T04:36:22.900Z,2.41
2018-12-24T04:37:28.427Z,2.35
2018-12-24T04:38:33.963Z,2.36
2018-12-24T04:39:39.492Z,2.28
2018-12-24T04:40:45.032Z,2.35
2018-12-24T04:41:50.549Z,2.36
2018-12-24T04:42:56.078Z,2.34
2018-12-24T04:44:01.608Z,2.31
2018-12-24T04:45:07.141Z,2.35
2018-12-24T04:46:12.667Z,2.36
2018-12-24T04:47:18.200Z,2.36
2018-12-24T04:48:23.734Z,2.34
2018-12-24T04:49:29.257Z,2.34
2018-12-24T04:50:34.795Z,2.36
2018-12-24T04:51:40.326Z,2.27
2018-12-24T04:52:45.856Z,2.36
2018-12-24T04:53:51.382Z,2.34
2018-12-24T04:54:56.912Z,2.39
2018-12-24T04:56:02.443Z,2.35
2018-12-24T04:57:07.971Z,2.36
2018-12-24T04:58:13.500Z,2.34
2018-12-24T04:59:19.033Z,2.38
2018-12-24T05:00:24.563Z,2.31
2018-12-24T05:01:30.098Z,2.24
2018-12-24T05:02:35.651Z,2.21
2018-12-24T05:03:41.158Z,2.24
2018-12-24T05:04:46.681Z,2.17
2018-12-24T05:05:52.218Z,2.18
2018-12-24T05:06:57.745Z,2.10
2018-12-24T05:08:03.293Z,2.17
2018-12-24T05:09:08.805Z,2.10
2018-12-24T05:10:14.340Z,2.23
2018-12-24T05:11:19.861Z,2.16
2018-12-24T05:12:25.393Z,2.17
2018-12-24T05:13:30.930Z,2.14
2018-12-24T05:14:36.453Z,2.07
2018-12-24T05:15:41.984Z,1.99
2018-12-24T05:16:47.521Z,1.93
2018-12-24T05:17:53.045Z,2.02
2018-12-24T05:18:58.583Z,1.93
2018-12-24T05:20:04.109Z,1.93
2018-12-24T05:21:09.634Z,1.93
2018-12-24T05:22:15.167Z,1.98
2018-12-24T05:23:20.696Z,1.93
2018-12-24T05:24:26.227Z,1.86
2018-12-24T05:25:31.755Z,1.90
2018-12-24T05:26:37.282Z,1.91
2018-12-24T05:27:42.818Z,1.86
2018-12-24T05:28:48.353Z,1.76
2018-12-24T05:29:53.873Z,1.79
2018-12-24T05:30:59.402Z,1.80
2018-12-24T05:32:04.939Z,1.73
2018-12-24T05:33:10.464Z,1.83
2018-12-24T05:34:15.991Z,1.68
2018-12-24T05:35:21.528Z,1.68
2018-12-24T05:36:27.055Z,1.59
2018-12-24T05:37:32.582Z,1.66
2018-12-24T05:38:38.118Z,1.55
2018-12-24T05:39:43.649Z,1.59
2018-12-24T05:40:49.174Z,1.50
2018-12-24T05:41:54.701Z,1.47
2018-12-24T05:43:00.236Z,1.42
2018-12-24T05:44:05.761Z,1.42
2018-12-24T05:45:11.294Z,1.45
2018-12-24T05:46:16.819Z,1.44
2018-12-24T05:47:22.353Z,1.41
2018-12-24T05:48:27.884Z,1.36
2018-12-24T05:49:33.410Z,1.42
2018-12-24T05:50:38.946Z,1.47
2018-12-24T05:51:44.474Z,1.40
2018-12-24T05:52:50.002Z,1.44
2018-12-24T05:53:55.529Z,1.41
2018-12-24T05:55:01.064Z,1.47
2018-12-24T05:56:06.602Z,1.47
2018-12-24T05:57:12.121Z,1.47
2018-12-24T05:58:17.654Z,1.48
2018-12-24T05:59:23.183Z,1.50
2018-12-24T06:00:28.707Z,1.44
2018-12-24T06:01:34.241Z,1.48
2018-12-24T06:02:39.770Z,1.45
2018-12-24T06:03:45.301Z,1.54
2018-12-24T06:04:50.835Z,1.47
2018-12-24T06:05:56.357Z,1.59
2018-12-24T06:07:01.891Z,1.52
2018-12-24T06:08:07.421Z,1.58
2018-12-24T06:09:12.952Z,1.58
2018-12-24T06:10:18.492Z,1.66
2018-12-24T06:11:24.017Z,1.63
2018-12-24T06:12:29.548Z,1.59
2018-12-24T06:13:35.075Z,1.60
2018-12-24T06:14:40.602Z,1.54
2018-12-24T06:15:46.132Z,1.58
2018-12-24T06:16:51.659Z,1.50
2018-12-24T06:17:57.743Z,1.60
2018-12-24T06:19:02.726Z,1.54
2018-12-24T06:20:08.257Z,1.66
2018-12-24T06:21:13.783Z,1.62
2018-12-24T06:22:19.306Z,1.60
2018-12-24T06:23:24.842Z,1.66
2018-12-24T06:24:30.415Z,1.60
2018-12-24T06:25:35.905Z,1.65
2018-12-24T06:26:41.435Z,1.62
2018-12-24T06:27:46.960Z,1.68
2018-12-24T06:28:52.492Z,1.65
2018-12-24T06:29:58.019Z,1.54
2018-12-24T06:31:03.570Z,1.52
2018-12-24T06:32:09.113Z,1.55
2018-12-24T06:33:14.612Z,1.69
2018-12-24T06:34:20.139Z,1.66
2018-12-24T06:35:25.670Z,1.72
2018-12-24T06:36:31.200Z,1.79
2018-12-24T06:37:36.730Z,1.86
2018-12-24T06:38:42.263Z,1.87
2018-12-24T06:39:47.791Z,1.80
2018-12-24T06:40:53.321Z,1.86
2018-12-24T06:41:58.858Z,1.79
2018-12-24T06:43:04.381Z,1.77
2018-12-24T06:44:09.911Z,1.80
2018-12-24T06:45:15.442Z,1.80
2018-12-24T06:46:20.974Z,1.72
2018-12-24T06:47:26.499Z,1.80
2018-12-24T06:48:32.035Z,1.80
2018-12-24T06:49:37.561Z,1.77
2018-12-24T06:50:43.092Z,1.69
2018-12-24T06:51:48.624Z,1.79
2018-12-24T06:52:54.156Z,1.79
2018-12-24T06:53:59.683Z,1.80
2018-12-24T06:55:05.268Z,1.79
2018-12-24T06:56:10.743Z,1.80
2018-12-24T06:57:16.278Z,1.80
2018-12-24T06:58:21.807Z,1.73
2018-12-24T06:59:27.336Z,1.79
2018-12-24T07:00:32.871Z,1.79
2018-12-24T07:01:38.402Z,1.79
2018-12-24T07:02:43.925Z,1.77
2018-12-24T07:03:49.456Z,1.80
2018-12-24T07:04:54.992Z,1.80
2018-12-24T07:06:00.518Z,1.80
2018-12-24T07:07:06.044Z,1.83
2018-12-24T07:08:11.578Z,1.81
2018-12-24T07:09:17.108Z,1.73
2018-12-24T07:10:22.652Z,1.69
2018-12-24T07:11:28.173Z,1.69
2018-12-24T07:12:33.703Z,1.70
2018-12-24T07:13:39.232Z,1.69
2018-12-24T07:14:44.759Z,1.68
2018-12-24T07:15:50.296Z,1.69
2018-12-24T07:16:55.821Z,1.69
2018-12-24T07:18:01.354Z,1.76
2018-12-24T07:19:06.880Z,1.80
2018-12-24T07:20:12.442Z,1.73
2018-12-24T07:21:17.944Z,1.73
2018-12-24T07:22:23.498Z,1.72
2018-12-24T07:23:29.010Z,1.70
2018-12-24T07:24:34.535Z,1.59
2018-12-24T07:25:40.067Z,1.69
2018-12-24T07:26:45.602Z,1.60
2018-12-24T07:27:51.128Z,1.66
2018-12-24T07:28:59.113Z,1.69
2018-12-24T07:30:02.190Z,1.68
2018-12-24T07:31:07.718Z,1.55
2018-12-24T07:32:13.248Z,1.63
2018-12-24T07:33:18.791Z,1.65
2018-12-24T07:34:32.185Z,1.55
2018-12-24T07:35:29.842Z,1.65
2018-12-24T07:36:35.370Z,1.69
2018-12-24T07:37:40.906Z,1.62
2018-12-24T07:38:46.433Z,1.55
2018-12-24T07:39:51.963Z,1.59
2018-12-24T07:40:57.494Z,1.65
2018-12-24T07:42:03.022Z,1.65
2018-12-24T07:44:40.135Z,1.65
2018-12-24T07:45:45.652Z,1.59
2018-12-24T07:47:44.072Z,1.70
2018-12-24T07:48:49.581Z,1.83
2018-12-24T07:50:47.986Z,1.72
2018-12-24T07:51:53.511Z,1.70
2018-12-24T07:53:51.926Z,1.79
2018-12-24T07:54:57.437Z,1.73
2018-12-24T07:56:55.848Z,1.79
2018-12-24T07:58:01.466Z,1.76
2018-12-24T07:59:59.778Z,1.79
2018-12-24T08:01:05.294Z,1.88
2018-12-24T08:03:03.728Z,1.68
2018-12-24T08:04:09.226Z,1.68
2018-12-24T08:06:07.633Z,1.72
2018-12-24T08:07:13.154Z,1.76
2018-12-24T08:08:18.684Z,1.77
2018-12-24T08:09:24.219Z,1.79
2018-12-24T08:10:29.745Z,1.87
2018-12-24T08:11:35.276Z,1.73
2018-12-24T08:12:40.802Z,1.84
2018-12-24T08:13:46.344Z,1.81
2018-12-24T08:14:51.863Z,1.77
2018-12-24T08:15:57.389Z,1.79
2018-12-24T08:17:02.934Z,1.76
2018-12-24T08:18:08.451Z,1.80
2018-12-24T08:19:13.985Z,1.77
2018-12-24T08:20:19.645Z,1.80
2018-12-24T08:21:25.039Z,1.86
2018-12-24T08:22:30.570Z,1.76
2018-12-24T08:23:36.102Z,1.83
2018-12-24T08:24:41.632Z,1.86
2018-12-24T08:25:47.162Z,1.84
2018-12-24T08:26:53.805Z,1.86
2018-12-24T08:27:58.234Z,1.88
2018-12-24T08:29:03.752Z,1.86
2018-12-24T08:30:09.306Z,1.76
2018-12-24T08:31:14.823Z,1.90
2018-12-24T08:32:20.351Z,1.86
2018-12-24T08:33:25.881Z,1.72
2018-12-24T08:34:31.408Z,1.87
2018-12-24T08:35:36.944Z,1.83
2018-12-24T08:36:42.474Z,1.86
2018-12-24T08:37:48.000Z,1.99
2018-12-24T08:38:53.530Z,1.98
2018-12-24T08:39:59.065Z,2.03
2018-12-24T08:41:04.591Z,1.95
2018-12-24T08:42:10.120Z,2.05
2018-12-24T08:43:15.653Z,2.02
2018-12-24T08:44:21.180Z,2.09
2018-12-24T08:45:26.713Z,2.03
2018-12-24T08:46:32.246Z,2.00
2018-12-24T08:47:37.774Z,2.05
2018-12-24T08:48:43.306Z,1.99
2018-12-24T08:49:48.834Z,1.98
2018-12-24T08:50:54.368Z,1.93
2018-12-24T08:51:59.892Z,2.07
2018-12-24T08:53:05.433Z,2.06
2018-12-24T08:54:10.956Z,2.12
2018-12-24T08:55:16.488Z,2.07
2018-12-24T08:56:22.021Z,2.12
2018-12-24T08:57:27.552Z,2.06
2018-12-24T08:58:33.082Z,2.09
2018-12-24T08:59:38.608Z,2.10
2018-12-24T09:00:44.143Z,2.17
2018-12-24T09:01:49.671Z,2.16
2018-12-24T09:02:55.208Z,2.12
2018-12-24T09:04:00.737Z,2.12
2018-12-24T09:05:06.262Z,2.14
2018-12-24T09:06:11.797Z,2.18
2018-12-24T09:07:17.324Z,2.10
2018-12-24T09:08:22.856Z,2.16
2018-12-24T09:09:28.385Z,2.28
2018-12-24T09:10:33.916Z,2.20
2018-12-24T09:11:39.445Z,2.10
2018-12-24T09:12:44.979Z,2.10
2018-12-24T09:13:50.520Z,2.24
2018-12-24T09:14:56.041Z,2.25
2018-12-24T09:16:01.566Z,2.27
2018-12-24T09:17:07.097Z,2.27
2018-12-24T09:18:12.629Z,2.24
2018-12-24T09:19:18.155Z,2.28
2018-12-24T09:20:23.685Z,2.24
2018-12-24T09:21:29.216Z,2.24
2018-12-24T09:22:34.746Z,2.23
2018-12-24T09:23:40.277Z,2.27
2018-12-24T09:24:45.807Z,2.35
2018-12-24T09:25:51.336Z,2.25
2018-12-24T09:26:56.865Z,2.25
2018-12-24T09:28:02.398Z,2.41
2018-12-24T09:29:07.929Z,2.28
2018-12-24T09:30:13.458Z,2.31
2018-12-24T09:31:18.988Z,2.34
2018-12-24T09:32:24.523Z,2.35
2018-12-24T09:33:30.049Z,2.36
2018-12-24T09:34:35.583Z,2.36
2018-12-24T09:35:41.108Z,2.35
2018-12-24T09:36:46.640Z,2.35
2018-12-24T09:37:52.173Z,2.41
2018-12-24T09:38:57.699Z,2.36
2018-12-24T09:40:03.238Z,2.34
2018-12-24T09:41:08.767Z,2.34
2018-12-24T09:42:14.292Z,2.36
2018-12-24T09:43:19.822Z,2.34
2018-12-24T09:44:25.477Z,2.41
2018-12-24T09:45:30.882Z,2.42
2018-12-24T09:46:36.417Z,2.41
2018-12-24T09:47:41.947Z,2.41
2018-12-24T09:48:47.476Z,2.36
2018-12-24T09:49:53.010Z,2.36
2018-12-24T09:50:58.532Z,2.36
2018-12-24T09:52:04.068Z,2.34
2018-12-24T09:53:09.596Z,2.52
2018-12-24T09:54:15.129Z,2.45
2018-12-24T09:55:20.654Z,2.38
2018-12-24T09:56:26.189Z,2.45
2018-12-24T09:57:31.715Z,2.39
2018-12-24T09:58:37.251Z,2.46
2018-12-24T09:59:42.777Z,2.43
2018-12-24T10:00:48.308Z,2.43
2018-12-24T10:01:53.835Z,2.46
2018-12-24T10:02:59.368Z,2.43
2018-12-24T10:04:04.902Z,2.48
2018-12-24T10:05:10.433Z,2.54
2018-12-24T10:06:15.955Z,2.52
2018-12-24T10:07:21.488Z,2.59
2018-12-24T10:08:27.023Z,2.64
2018-12-24T10:09:32.550Z,2.54
2018-12-24T10:10:38.086Z,2.57
2018-12-24T10:11:43.608Z,2.74
2018-12-24T10:12:49.139Z,2.64
2018-12-24T10:13:54.699Z,2.74
2018-12-24T10:15:07.675Z,2.74
2018-12-24T10:16:05.735Z,2.69
2018-12-24T10:17:11.259Z,2.74
2018-12-24T10:18:16.799Z,2.69
2018-12-24T10:19:22.323Z,2.82
2018-12-24T10:20:27.859Z,2.82
2018-12-24T10:21:33.391Z,2.82
2018-12-24T10:22:38.919Z,2.82
2018-12-24T10:23:44.449Z,2.82
2018-12-24T10:24:50.068Z,2.87
2018-12-24T10:25:55.505Z,2.89
2018-12-24T10:27:01.041Z,2.78
2018-12-24T10:28:06.564Z,2.85
2018-12-24T10:29:12.100Z,2.95
2018-12-24T10:30:17.628Z,2.95
2018-12-24T10:32:54.777Z,2.95
2018-12-24T10:34:00.256Z,2.95
2018-12-24T10:35:05.800Z,2.96
2018-12-24T10:36:11.323Z,3.00
2018-12-24T10:37:16.843Z,2.97
2018-12-24T10:38:22.450Z,3.02
2018-12-24T10:39:27.913Z,2.99
2018-12-24T10:40:33.560Z,3.02
2018-12-24T10:41:38.968Z,3.11
2018-12-24T10:42:44.495Z,3.08
2018-12-24T10:43:50.028Z,3.03
2018-12-24T10:44:55.565Z,2.99
2018-12-24T10:46:01.087Z,2.99
2018-12-24T10:47:06.625Z,3.08
2018-12-24T10:48:12.149Z,3.08
2018-12-24T10:49:17.681Z,3.00
2018-12-24T10:50:23.216Z,3.03
2018-12-24T10:51:28.743Z,3.08
2018-12-24T10:52:34.274Z,3.14
2018-12-24T10:53:39.807Z,3.13
2018-12-24T10:54:45.392Z,3.11
2018-12-24T10:55:50.865Z,3.18
2018-12-24T10:56:56.395Z,3.24
2018-12-24T10:58:01.931Z,3.23
2018-12-24T10:59:07.461Z,3.18
2018-12-24T11:00:12.991Z,3.15
2018-12-24T11:01:18.526Z,3.20
2018-12-24T11:02:24.049Z,3.20
2018-12-24T11:03:29.588Z,3.21
2018-12-24T11:04:35.115Z,3.23
2018-12-24T11:05:40.642Z,3.18
2018-12-24T11:06:46.176Z,3.26
2018-12-24T11:07:51.712Z,3.24
2018-12-24T11:08:57.237Z,3.24
2018-12-24T11:10:02.770Z,3.24
2018-12-24T11:11:08.300Z,3.31
2018-12-24T11:12:13.828Z,3.31
2018-12-24T11:13:19.366Z,3.18
2018-12-24T11:14:24.890Z,3.20
2018-12-24T11:15:30.430Z,3.31
2018-12-24T11:16:35.963Z,3.31
2018-12-24T11:17:41.488Z,3.26
2018-12-24T11:18:47.013Z,3.20
2018-12-24T11:19:53.725Z,3.20
2018-12-24T11:20:58.075Z,3.21
2018-12-24T11:22:03.611Z,3.39
2018-12-24T11:23:09.140Z,3.35
2018-12-24T11:24:14.671Z,3.32
2018-12-24T11:25:20.202Z,3.31
2018-12-24T11:26:25.731Z,3.31
2018-12-24T11:27:31.263Z,3.33
2018-12-24T11:28:36.797Z,3.35
2018-12-24T11:29:42.323Z,3.45
2018-12-24T11:30:47.854Z,3.50
2018-12-24T11:31:53.389Z,3.50
2018-12-24T11:32:58.924Z,3.47
2018-12-24T11:34:04.451Z,3.40
2018-12-24T11:35:09.979Z,3.51
2018-12-24T11:36:15.514Z,3.51
2018-12-24T11:37:21.066Z,3.47
2018-12-24T11:38:26.571Z,3.52
2018-12-24T11:39:32.100Z,3.45
2018-12-24T11:40:37.632Z,3.48
2018-12-24T11:41:43.168Z,3.43
2018-12-24T11:42:48.761Z,3.45
2018-12-24T11:43:54.279Z,3.36
2018-12-24T11:44:59.829Z,3.35
2018-12-24T11:46:05.291Z,3.40
2018-12-24T11:47:10.842Z,3.39
2018-12-24T11:48:16.359Z,3.45
2018-12-24T11:49:21.876Z,3.55
2018-12-24T11:50:27.416Z,3.52
2018-12-24T11:51:32.979Z,3.54
2018-12-24T11:52:38.487Z,3.54
2018-12-24T11:53:44.018Z,3.61
2018-12-24T11:54:49.548Z,3.60
2018-12-24T11:55:55.160Z,3.65
2018-12-24T11:57:00.603Z,3.62
2018-12-24T11:58:13.374Z,3.58
2018-12-24T11:59:11.665Z,3.62
2018-12-24T12:00:17.193Z,3.65
2018-12-24T12:01:22.728Z,3.61
2018-12-24T12:02:28.257Z,3.65
2018-12-24T12:03:33.791Z,3.73
2018-12-24T12:04:39.352Z,3.68
2018-12-24T12:05:44.850Z,3.76
2018-12-24T12:06:50.384Z,3.72
2018-12-24T12:07:55.913Z,3.79
2018-12-24T12:09:01.451Z,3.90
2018-12-24T12:10:06.978Z,3.90
2018-12-24T12:11:12.514Z,3.87
2018-12-24T12:12:18.044Z,3.93
2018-12-24T12:13:23.572Z,3.90
2018-12-24T12:14:29.104Z,3.96
2018-12-24T12:15:42.338Z,3.97
2018-12-24T12:16:40.164Z,3.97
2018-12-24T12:17:45.698Z,3.94
2018-12-24T12:18:51.235Z,3.91
2018-12-24T12:19:56.760Z,3.90
2018-12-24T12:21:02.294Z,3.91
2018-12-24T12:22:07.821Z,3.86
2018-12-24T12:23:13.355Z,3.86
2018-12-24T12:24:18.893Z,3.88
2018-12-24T12:25:24.418Z,3.80
2018-12-24T12:26:30.380Z,3.78
2018-12-24T12:27:35.487Z,3.76
2018-12-24T12:28:41.011Z,3.76
2018-12-24T12:29:46.547Z,3.78
2018-12-24T12:30:52.076Z,3.79
2018-12-24T12:31:57.613Z,3.78
2018-12-24T12:33:03.142Z,3.79
2018-12-24T12:34:08.672Z,3.79
2018-12-24T12:35:14.208Z,3.91
2018-12-24T12:36:19.738Z,3.79
2018-12-24T12:37:25.265Z,3.88
2018-12-24T12:38:30.842Z,3.87
2018-12-24T12:39:36.332Z,3.86
2018-12-24T12:40:41.861Z,3.86
2018-12-24T12:41:47.389Z,3.80
2018-12-24T12:42:52.925Z,3.80
2018-12-24T12:43:58.467Z,3.90
2018-12-24T12:45:03.988Z,3.91
2018-12-24T12:46:09.520Z,3.94
2018-12-24T12:47:15.068Z,3.83
2018-12-24T12:48:21.417Z,3.87
2018-12-24T12:49:26.110Z,3.90
2018-12-24T12:52:03.235Z,3.87
2018-12-24T12:53:08.744Z,3.73
2018-12-24T12:55:07.159Z,3.80
2018-12-24T12:56:12.675Z,3.88
2018-12-24T12:58:11.101Z,3.90
2018-12-24T12:59:16.622Z,3.79
2018-12-24T13:01:15.039Z,3.86
2018-12-24T13:02:20.550Z,3.83
2018-12-24T13:04:19.003Z,3.94
2018-12-24T13:05:24.488Z,3.86
2018-12-24T13:07:22.904Z,3.93
2018-12-24T13:08:28.409Z,4.00
2018-12-24T13:10:26.816Z,3.94
2018-12-24T13:11:32.341Z,3.90
2018-12-24T13:13:36.811Z,3.96
2018-12-24T13:14:36.269Z,3.94
2018-12-24T13:16:34.690Z,3.94
2018-12-24T13:17:40.201Z,3.94
2018-12-24T13:18:45.729Z,3.94
2018-12-24T13:19:51.260Z,3.97
2018-12-24T13:20:56.792Z,3.91
2018-12-24T13:22:04.381Z,3.93
2018-12-24T13:23:07.866Z,3.94
2018-12-24T13:24:13.386Z,3.98
2018-12-24T13:25:18.935Z,3.93
2018-12-24T13:26:24.452Z,4.00
2018-12-24T13:27:29.978Z,3.90
2018-12-24T13:28:35.512Z,3.87
2018-12-24T13:29:41.048Z,3.96
2018-12-24T13:30:46.572Z,3.94
2018-12-24T13:31:53.673Z,3.96
2018-12-24T13:32:57.635Z,3.94
2018-12-24T13:34:03.173Z,3.90
2018-12-24T13:35:08.699Z,3.91
2018-12-24T13:36:14.230Z,3.90
2018-12-24T13:37:19.766Z,3.98
2018-12-24T13:38:25.294Z,3.87
2018-12-24T13:39:30.828Z,3.97
2018-12-24T13:40:36.358Z,3.93
2018-12-24T13:41:41.890Z,4.05
2018-12-24T13:42:47.419Z,3.98
2018-12-24T13:43:52.950Z,4.02
2018-12-24T13:44:58.489Z,4.02
2018-12-24T13:46:08.080Z,3.98
2018-12-24T13:47:09.550Z,3.96
2018-12-24T13:48:15.078Z,3.86
2018-12-24T13:49:20.619Z,3.88
2018-12-24T13:50:26.145Z,3.97
2018-12-24T13:51:31.675Z,3.93
2018-12-24T13:52:37.203Z,3.94
2018-12-24T13:53:42.741Z,3.84
2018-12-24T13:54:48.271Z,3.83
2018-12-24T13:55:53.804Z,3.66
2018-12-24T13:56:59.331Z,3.72
2018-12-24T13:58:04.862Z,3.68
2018-12-24T13:59:10.392Z,3.76
2018-12-24T14:00:15.922Z,3.73
2018-12-24T14:01:21.462Z,3.72
2018-12-24T14:02:26.987Z,3.70
2018-12-24T14:03:32.516Z,3.61
2018-12-24T14:04:38.051Z,3.58
2018-12-24T14:05:43.579Z,3.60
2018-12-24T14:06:49.111Z,3.66
2018-12-24T14:07:54.656Z,3.61
2018-12-24T14:09:00.183Z,3.58
2018-12-24T14:10:05.714Z,3.62
2018-12-24T14:11:11.241Z,3.61
2018-12-24T14:12:16.775Z,3.62
2018-12-24T14:13:22.301Z,3.57
2018-12-24T14:14:27.838Z,3.57
2018-12-24T14:15:33.365Z,3.55
2018-12-24T14:16:38.897Z,3.61
2018-12-24T14:17:44.434Z,3.58
2018-12-24T14:18:49.968Z,3.54
2018-12-24T14:19:55.494Z,3.54
2018-12-24T14:21:01.024Z,3.62
2018-12-24T14:22:06.561Z,3.60
2018-12-24T14:23:12.089Z,3.57
2018-12-24T14:24:17.623Z,3.52
2018-12-24T14:25:23.153Z,3.54
2018-12-24T14:26:28.684Z,3.60
2018-12-24T14:27:34.209Z,3.51
2018-12-24T14:28:39.769Z,3.52
2018-12-24T14:29:45.563Z,3.54
2018-12-24T14:30:50.804Z,3.51
2018-12-24T14:31:56.336Z,3.43
2018-12-24T14:33:01.866Z,3.52
2018-12-24T14:34:07.397Z,3.52
2018-12-24T14:35:12.936Z,3.51
2018-12-24T14:36:18.463Z,3.54
2018-12-24T14:37:23.996Z,3.54
2018-12-24T14:38:29.529Z,3.52
2018-12-24T14:39:35.058Z,3.52
2018-12-24T14:40:40.587Z,3.47
2018-12-24T14:41:46.123Z,3.52
2018-12-24T14:42:51.647Z,3.54
2018-12-24T14:43:57.183Z,3.47
2018-12-24T14:45:02.719Z,3.57
2018-12-24T14:46:08.244Z,3.57
2018-12-24T14:47:13.779Z,3.57
2018-12-24T14:48:19.309Z,3.60
2018-12-24T14:49:24.835Z,3.55
2018-12-24T14:50:30.371Z,3.57
2018-12-24T14:51:35.900Z,3.58
2018-12-24T14:52:41.433Z,3.54